sensor_id;sensor_type;location;lat;lon;timestamp;temperature;humidity
31675;DHT22;18276;45.520;11.018;2022-09-13T00:01:26;20.20;74.80
31675;DHT22;18276;45.520;11.018;2022-09-13T00:03:53;20.20;74.90
31675;DHT22;18276;45.520;11.018;2022-09-13T00:06:21;20.20;74.90
31675;DHT22;18276;45.520;11.018;2022-09-13T00:08:48;20.20;75.00
31675;DHT22;18276;45.520;11.018;2022-09-13T00:11:22;20.10;75.00
31675;DHT22;18276;45.520;11.018;2022-09-13T00:13:51;20.10;75.20
31675;DHT22;18276;45.520;11.018;2022-09-13T00:16:20;20.00;75.20
31675;DHT22;18276;45.520;11.018;2022-09-13T00:18:47;20.00;75.30
31675;DHT22;18276;45.520;11.018;2022-09-13T00:21:17;20.00;75.40
31675;DHT22;18276;45.520;11.018;2022-09-13T00:23:46;20.00;75.50
31675;DHT22;18276;45.520;11.018;2022-09-13T00:26:16;20.00;75.60
31675;DHT22;18276;45.520;11.018;2022-09-13T00:28:44;19.90;75.60
31675;DHT22;18276;45.520;11.018;2022-09-13T00:31:11;19.90;75.70
31675;DHT22;18276;45.520;11.018;2022-09-13T00:33:38;19.90;75.90
31675;DHT22;18276;45.520;11.018;2022-09-13T00:36:08;19.90;75.90
31675;DHT22;18276;45.520;11.018;2022-09-13T00:38:39;19.80;75.80
31675;DHT22;18276;45.520;11.018;2022-09-13T00:41:10;19.80;75.90
31675;DHT22;18276;45.520;11.018;2022-09-13T00:48:50;19.70;75.80
31675;DHT22;18276;45.520;11.018;2022-09-13T00:51:19;19.70;76.00
31675;DHT22;18276;45.520;11.018;2022-09-13T00:53:49;19.70;76.20
31675;DHT22;18276;45.520;11.018;2022-09-13T00:56:22;19.60;76.20
31675;DHT22;18276;45.520;11.018;2022-09-13T00:59:07;19.60;76.20
31675;DHT22;18276;45.520;11.018;2022-09-13T01:01:49;19.60;76.20
31675;DHT22;18276;45.520;11.018;2022-09-13T01:04:18;19.60;76.20
31675;DHT22;18276;45.520;11.018;2022-09-13T01:06:47;19.60;76.20
31675;DHT22;18276;45.520;11.018;2022-09-13T01:09:15;19.60;76.40
31675;DHT22;18276;45.520;11.018;2022-09-13T01:11:46;19.60;76.40
31675;DHT22;18276;45.520;11.018;2022-09-13T01:14:21;19.60;76.50
31675;DHT22;18276;45.520;11.018;2022-09-13T01:16:49;19.50;76.50
31675;DHT22;18276;45.520;11.018;2022-09-13T01:19:18;19.50;76.60
31675;DHT22;18276;45.520;11.018;2022-09-13T01:22:18;19.50;76.60
31675;DHT22;18276;45.520;11.018;2022-09-13T01:30:10;19.50;76.90
31675;DHT22;18276;45.520;11.018;2022-09-13T01:32:59;19.40;76.80
31675;DHT22;18276;45.520;11.018;2022-09-13T01:38:54;19.40;77.00
31675;DHT22;18276;45.520;11.018;2022-09-13T01:47:28;19.40;77.10
31675;DHT22;18276;45.520;11.018;2022-09-13T01:50:16;19.40;77.10
31675;DHT22;18276;45.520;11.018;2022-09-13T01:52:55;19.40;77.10
31675;DHT22;18276;45.520;11.018;2022-09-13T01:55:34;19.40;77.10
31675;DHT22;18276;45.520;11.018;2022-09-13T01:58:20;19.40;77.20
31675;DHT22;18276;45.520;11.018;2022-09-13T02:01:17;19.30;77.20
31675;DHT22;18276;45.520;11.018;2022-09-13T02:06:49;19.30;77.30
31675;DHT22;18276;45.520;11.018;2022-09-13T02:09:20;19.30;77.30
31675;DHT22;18276;45.520;11.018;2022-09-13T02:11:53;19.30;77.40
31675;DHT22;18276;45.520;11.018;2022-09-13T02:14:27;19.30;77.50
31675;DHT22;18276;45.520;11.018;2022-09-13T02:17:02;19.30;77.50
31675;DHT22;18276;45.520;11.018;2022-09-13T02:22:19;19.30;77.50
31675;DHT22;18276;45.520;11.018;2022-09-13T02:24:52;19.30;77.50
31675;DHT22;18276;45.520;11.018;2022-09-13T02:27:25;19.30;77.50
31675;DHT22;18276;45.520;11.018;2022-09-13T02:29:59;19.30;77.60
31675;DHT22;18276;45.520;11.018;2022-09-13T02:32:35;19.20;77.50
31675;DHT22;18276;45.520;11.018;2022-09-13T02:35:07;19.30;77.60
31675;DHT22;18276;45.520;11.018;2022-09-13T02:37:39;19.30;77.60
31675;DHT22;18276;45.520;11.018;2022-09-13T02:40:11;19.30;77.60
31675;DHT22;18276;45.520;11.018;2022-09-13T02:42:52;19.20;77.60
31675;DHT22;18276;45.520;11.018;2022-09-13T02:45:21;19.20;77.70
31675;DHT22;18276;45.520;11.018;2022-09-13T02:48:05;19.20;77.70
31675;DHT22;18276;45.520;11.018;2022-09-13T02:53:21;19.20;77.80
31675;DHT22;18276;45.520;11.018;2022-09-13T02:56:13;19.20;78.00
31675;DHT22;18276;45.520;11.018;2022-09-13T02:58:45;19.20;78.10
31675;DHT22;18276;45.520;11.018;2022-09-13T03:01:14;19.20;78.10
31675;DHT22;18276;45.520;11.018;2022-09-13T03:03:41;19.20;78.10
31675;DHT22;18276;45.520;11.018;2022-09-13T03:06:09;19.20;78.20
31675;DHT22;18276;45.520;11.018;2022-09-13T03:08:36;19.20;78.10
31675;DHT22;18276;45.520;11.018;2022-09-13T03:16:46;19.20;78.30
31675;DHT22;18276;45.520;11.018;2022-09-13T03:22:46;19.20;78.50
31675;DHT22;18276;45.520;11.018;2022-09-13T03:28:16;19.20;78.60
31675;DHT22;18276;45.520;11.018;2022-09-13T03:30:43;19.20;78.80
31675;DHT22;18276;45.520;11.018;2022-09-13T03:33:27;19.20;78.90
31675;DHT22;18276;45.520;11.018;2022-09-13T03:38:55;19.20;79.10
31675;DHT22;18276;45.520;11.018;2022-09-13T03:41:33;19.20;79.20
31675;DHT22;18276;45.520;11.018;2022-09-13T03:44:05;19.20;79.30
31675;DHT22;18276;45.520;11.018;2022-09-13T03:46:39;19.20;79.30
31675;DHT22;18276;45.520;11.018;2022-09-13T03:49:11;19.20;79.50
31675;DHT22;18276;45.520;11.018;2022-09-13T03:51:39;19.20;79.70
31675;DHT22;18276;45.520;11.018;2022-09-13T03:54:21;19.10;79.70
31675;DHT22;18276;45.520;11.018;2022-09-13T03:59:46;19.20;80.10
31675;DHT22;18276;45.520;11.018;2022-09-13T04:02:14;19.10;80.10
31675;DHT22;18276;45.520;11.018;2022-09-13T04:04:43;19.10;80.20
31675;DHT22;18276;45.520;11.018;2022-09-13T04:07:12;19.10;80.30
31675;DHT22;18276;45.520;11.018;2022-09-13T04:09:39;19.10;80.40
31675;DHT22;18276;45.520;11.018;2022-09-13T04:12:07;19.10;80.50
31675;DHT22;18276;45.520;11.018;2022-09-13T04:14:35;19.10;80.70
31675;DHT22;18276;45.520;11.018;2022-09-13T04:17:02;19.10;80.80
31675;DHT22;18276;45.520;11.018;2022-09-13T04:19:29;19.10;80.80
31675;DHT22;18276;45.520;11.018;2022-09-13T04:21:57;19.10;81.00
31675;DHT22;18276;45.520;11.018;2022-09-13T04:24:26;19.10;81.10
31675;DHT22;18276;45.520;11.018;2022-09-13T04:26:54;19.10;81.00
31675;DHT22;18276;45.520;11.018;2022-09-13T04:29:23;19.10;81.10
31675;DHT22;18276;45.520;11.018;2022-09-13T04:31:52;19.10;81.00
31675;DHT22;18276;45.520;11.018;2022-09-13T04:34:19;19.10;81.00
31675;DHT22;18276;45.520;11.018;2022-09-13T04:36:50;19.10;81.10
31675;DHT22;18276;45.520;11.018;2022-09-13T04:39:18;19.10;81.20
31675;DHT22;18276;45.520;11.018;2022-09-13T04:41:47;19.10;81.30
31675;DHT22;18276;45.520;11.018;2022-09-13T04:44:15;19.10;81.50
31675;DHT22;18276;45.520;11.018;2022-09-13T04:46:45;19.00;81.60
31675;DHT22;18276;45.520;11.018;2022-09-13T04:49:15;19.00;81.70
31675;DHT22;18276;45.520;11.018;2022-09-13T04:51:43;19.00;81.80
31675;DHT22;18276;45.520;11.018;2022-09-13T04:54:10;19.00;81.80
31675;DHT22;18276;45.520;11.018;2022-09-13T04:56:45;19.00;81.90
31675;DHT22;18276;45.520;11.018;2022-09-13T04:59:13;19.00;81.90
31675;DHT22;18276;45.520;11.018;2022-09-13T05:01:40;19.00;81.90
31675;DHT22;18276;45.520;11.018;2022-09-13T05:04:08;19.00;81.80
31675;DHT22;18276;45.520;11.018;2022-09-13T05:06:36;19.10;81.80
31675;DHT22;18276;45.520;11.018;2022-09-13T05:09:03;19.10;81.70
31675;DHT22;18276;45.520;11.018;2022-09-13T05:11:31;19.10;81.60
31675;DHT22;18276;45.520;11.018;2022-09-13T05:13:59;19.20;81.60
31675;DHT22;18276;45.520;11.018;2022-09-13T05:16:29;19.20;81.40
31675;DHT22;18276;45.520;11.018;2022-09-13T05:18:57;19.20;81.30
31675;DHT22;18276;45.520;11.018;2022-09-13T05:21:25;19.30;81.20
31675;DHT22;18276;45.520;11.018;2022-09-13T05:23:54;19.30;81.10
31675;DHT22;18276;45.520;11.018;2022-09-13T05:26:23;19.30;81.00
31675;DHT22;18276;45.520;11.018;2022-09-13T05:28:50;19.40;80.90
31675;DHT22;18276;45.520;11.018;2022-09-13T05:31:22;19.40;80.50
31675;DHT22;18276;45.520;11.018;2022-09-13T05:33:59;19.50;80.30
31675;DHT22;18276;45.520;11.018;2022-09-13T05:36:27;19.60;79.90
31675;DHT22;18276;45.520;11.018;2022-09-13T05:38:55;19.90;79.50
31675;DHT22;18276;45.520;11.018;2022-09-13T05:41:43;20.70;77.60
31675;DHT22;18276;45.520;11.018;2022-09-13T05:44:10;21.70;74.80
31675;DHT22;18276;45.520;11.018;2022-09-13T05:46:40;22.50;71.90
31675;DHT22;18276;45.520;11.018;2022-09-13T05:49:10;23.10;69.40
31675;DHT22;18276;45.520;11.018;2022-09-13T05:51:38;23.70;67.00
31675;DHT22;18276;45.520;11.018;2022-09-13T05:54:05;24.10;65.30
31675;DHT22;18276;45.520;11.018;2022-09-13T05:56:32;24.60;63.70
31675;DHT22;18276;45.520;11.018;2022-09-13T05:58:59;24.90;62.10
31675;DHT22;18276;45.520;11.018;2022-09-13T06:01:27;25.20;60.90
31675;DHT22;18276;45.520;11.018;2022-09-13T06:03:57;25.30;60.20
31675;DHT22;18276;45.520;11.018;2022-09-13T06:06:24;25.40;59.90
31675;DHT22;18276;45.520;11.018;2022-09-13T06:08:53;25.40;60.10
31675;DHT22;18276;45.520;11.018;2022-09-13T06:11:21;25.40;60.30
31675;DHT22;18276;45.520;11.018;2022-09-13T06:13:48;25.50;60.40
31675;DHT22;18276;45.520;11.018;2022-09-13T06:16:16;25.80;60.10
31675;DHT22;18276;45.520;11.018;2022-09-13T06:18:43;26.10;59.30
31675;DHT22;18276;45.520;11.018;2022-09-13T06:21:30;26.50;58.30
31675;DHT22;18276;45.520;11.018;2022-09-13T06:23:57;27.20;57.00
31675;DHT22;18276;45.520;11.018;2022-09-13T06:26:26;27.80;55.80
31675;DHT22;18276;45.520;11.018;2022-09-13T06:28:55;28.70;54.10
31675;DHT22;18276;45.520;11.018;2022-09-13T06:31:25;29.40;52.20
31675;DHT22;18276;45.520;11.018;2022-09-13T06:34:00;29.90;50.70
31675;DHT22;18276;45.520;11.018;2022-09-13T06:36:29;30.60;48.90
31675;DHT22;18276;45.520;11.018;2022-09-13T06:38:56;31.10;48.20
31675;DHT22;18276;45.520;11.018;2022-09-13T06:41:26;31.50;47.10
31675;DHT22;18276;45.520;11.018;2022-09-13T06:43:55;31.80;46.20
31675;DHT22;18276;45.520;11.018;2022-09-13T06:46:24;32.10;45.50
31675;DHT22;18276;45.520;11.018;2022-09-13T06:48:52;32.70;44.80
31675;DHT22;18276;45.520;11.018;2022-09-13T06:51:21;33.10;43.80
31675;DHT22;18276;45.520;11.018;2022-09-13T06:53:50;33.50;42.70
31675;DHT22;18276;45.520;11.018;2022-09-13T06:56:29;34.00;42.00
31675;DHT22;18276;45.520;11.018;2022-09-13T06:58:59;34.40;41.20
31675;DHT22;18276;45.520;11.018;2022-09-13T07:01:28;34.70;40.50
31675;DHT22;18276;45.520;11.018;2022-09-13T07:04:11;35.00;39.80
31675;DHT22;18276;45.520;11.018;2022-09-13T07:06:41;35.30;39.20
31675;DHT22;18276;45.520;11.018;2022-09-13T07:09:11;35.50;39.20
31675;DHT22;18276;45.520;11.018;2022-09-13T07:11:40;36.00;38.80
31675;DHT22;18276;45.520;11.018;2022-09-13T07:14:08;36.10;38.10
31675;DHT22;18276;45.520;11.018;2022-09-13T07:16:36;36.20;37.70
31675;DHT22;18276;45.520;11.018;2022-09-13T07:19:06;36.10;38.10
31675;DHT22;18276;45.520;11.018;2022-09-13T07:21:34;36.10;37.20
31675;DHT22;18276;45.520;11.018;2022-09-13T07:24:01;36.00;37.10
31675;DHT22;18276;45.520;11.018;2022-09-13T07:26:29;35.60;37.30
31675;DHT22;18276;45.520;11.018;2022-09-13T07:29:00;35.50;37.00
31675;DHT22;18276;45.520;11.018;2022-09-13T07:31:30;35.50;36.20
31675;DHT22;18276;45.520;11.018;2022-09-13T07:34:00;35.40;36.70
31675;DHT22;18276;45.520;11.018;2022-09-13T07:36:29;35.40;37.00
31675;DHT22;18276;45.520;11.018;2022-09-13T07:38:57;35.40;37.20
31675;DHT22;18276;45.520;11.018;2022-09-13T07:41:28;35.20;37.70
31675;DHT22;18276;45.520;11.018;2022-09-13T07:43:57;35.30;38.10
31675;DHT22;18276;45.520;11.018;2022-09-13T07:46:26;35.30;38.40
31675;DHT22;18276;45.520;11.018;2022-09-13T07:48:55;35.00;37.90
31675;DHT22;18276;45.520;11.018;2022-09-13T07:51:29;34.90;37.90
31675;DHT22;18276;45.520;11.018;2022-09-13T07:53:59;35.00;38.20
31675;DHT22;18276;45.520;11.018;2022-09-13T07:56:32;35.50;37.30
31675;DHT22;18276;45.520;11.018;2022-09-13T07:59:01;35.80;36.30
31675;DHT22;18276;45.520;11.018;2022-09-13T08:01:34;36.00;36.50
31675;DHT22;18276;45.520;11.018;2022-09-13T08:04:04;36.70;35.50
31675;DHT22;18276;45.520;11.018;2022-09-13T08:06:32;37.30;34.60
31675;DHT22;18276;45.520;11.018;2022-09-13T08:09:00;37.60;34.30
31675;DHT22;18276;45.520;11.018;2022-09-13T08:11:36;38.00;33.90
31675;DHT22;18276;45.520;11.018;2022-09-13T08:14:05;38.50;32.90
31675;DHT22;18276;45.520;11.018;2022-09-13T08:16:32;38.50;32.30
31675;DHT22;18276;45.520;11.018;2022-09-13T08:19:02;38.80;32.10
31675;DHT22;18276;45.520;11.018;2022-09-13T08:21:37;39.00;31.90
31675;DHT22;18276;45.520;11.018;2022-09-13T08:24:05;39.20;31.50
31675;DHT22;18276;45.520;11.018;2022-09-13T08:26:34;38.90;32.30
31675;DHT22;18276;45.520;11.018;2022-09-13T08:29:04;38.90;32.40
31675;DHT22;18276;45.520;11.018;2022-09-13T08:31:32;39.20;32.00
31675;DHT22;18276;45.520;11.018;2022-09-13T08:33:59;39.40;32.10
31675;DHT22;18276;45.520;11.018;2022-09-13T08:36:27;39.60;31.60
31675;DHT22;18276;45.520;11.018;2022-09-13T08:38:57;39.40;31.60
31675;DHT22;18276;45.520;11.018;2022-09-13T08:44:30;39.90;31.50
31675;DHT22;18276;45.520;11.018;2022-09-13T08:49:45;40.00;30.80
31675;DHT22;18276;45.520;11.018;2022-09-13T08:54:41;39.70;31.70
31675;DHT22;18276;45.520;11.018;2022-09-13T08:57:14;40.00;31.60
31675;DHT22;18276;45.520;11.018;2022-09-13T09:05:25;39.50;31.90
31675;DHT22;18276;45.520;11.018;2022-09-13T09:08:13;39.10;32.50
31675;DHT22;18276;45.520;11.018;2022-09-13T09:10:47;38.90;32.80
31675;DHT22;18276;45.520;11.018;2022-09-13T09:16:31;38.70;33.20
31675;DHT22;18276;45.520;11.018;2022-09-13T09:19:13;39.20;32.60
31675;DHT22;18276;45.520;11.018;2022-09-13T09:21:42;39.10;32.50
31675;DHT22;18276;45.520;11.018;2022-09-13T09:24:20;39.00;32.80
31675;DHT22;18276;45.520;11.018;2022-09-13T09:26:47;39.40;32.50
31675;DHT22;18276;45.520;11.018;2022-09-13T09:29:21;39.50;32.00
31675;DHT22;18276;45.520;11.018;2022-09-13T09:32:01;39.70;31.40
31675;DHT22;18276;45.520;11.018;2022-09-13T09:37:22;40.50;31.40
31675;DHT22;18276;45.520;11.018;2022-09-13T09:39:54;40.60;31.30
31675;DHT22;18276;45.520;11.018;2022-09-13T09:42:27;40.20;31.30
31675;DHT22;18276;45.520;11.018;2022-09-13T09:45:20;40.00;31.80
31675;DHT22;18276;45.520;11.018;2022-09-13T09:47:50;39.90;31.70
31675;DHT22;18276;45.520;11.018;2022-09-13T09:50:26;40.00;31.50
31675;DHT22;18276;45.520;11.018;2022-09-13T09:53:02;40.40;31.10
31675;DHT22;18276;45.520;11.018;2022-09-13T09:55:58;40.50;30.80
31675;DHT22;18276;45.520;11.018;2022-09-13T09:58:42;40.90;30.20
31675;DHT22;18276;45.520;11.018;2022-09-13T10:01:20;41.10;29.70
31675;DHT22;18276;45.520;11.018;2022-09-13T10:06:40;39.90;31.10
31675;DHT22;18276;45.520;11.018;2022-09-13T10:09:16;39.90;31.40
31675;DHT22;18276;45.520;11.018;2022-09-13T10:11:54;39.80;31.40
31675;DHT22;18276;45.520;11.018;2022-09-13T10:14:42;39.80;31.10
31675;DHT22;18276;45.520;11.018;2022-09-13T10:17:16;39.90;31.40
31675;DHT22;18276;45.520;11.018;2022-09-13T10:19:57;40.00;31.10
31675;DHT22;18276;45.520;11.018;2022-09-13T10:22:31;39.90;31.30
31675;DHT22;18276;45.520;11.018;2022-09-13T10:25:21;39.90;31.20
31675;DHT22;18276;45.520;11.018;2022-09-13T10:27:55;40.50;30.80
31675;DHT22;18276;45.520;11.018;2022-09-13T10:30:41;41.00;30.50
31675;DHT22;18276;45.520;11.018;2022-09-13T10:36:13;40.20;30.40
31675;DHT22;18276;45.520;11.018;2022-09-13T10:39:01;39.40;31.90
31675;DHT22;18276;45.520;11.018;2022-09-13T10:41:31;38.60;33.00
31675;DHT22;18276;45.520;11.018;2022-09-13T10:44:01;38.60;32.80
31675;DHT22;18276;45.520;11.018;2022-09-13T10:46:37;38.90;32.30
31675;DHT22;18276;45.520;11.018;2022-09-13T10:49:05;39.30;31.80
31675;DHT22;18276;45.520;11.018;2022-09-13T10:51:53;39.60;31.40
31675;DHT22;18276;45.520;11.018;2022-09-13T10:54:22;39.90;31.30
31675;DHT22;18276;45.520;11.018;2022-09-13T10:56:50;40.00;31.10
31675;DHT22;18276;45.520;11.018;2022-09-13T11:07:19;40.70;30.30
31675;DHT22;18276;45.520;11.018;2022-09-13T11:12:56;40.20;30.70
31675;DHT22;18276;45.520;11.018;2022-09-13T11:18:45;40.30;30.60
31675;DHT22;18276;45.520;11.018;2022-09-13T11:44:27;30.60;46.30
31675;DHT22;18276;45.520;11.018;2022-09-13T11:50:04;30.40;46.60
31675;DHT22;18276;45.520;11.018;2022-09-13T11:55:21;30.50;47.00
31675;DHT22;18276;45.520;11.018;2022-09-13T11:58:03;30.50;47.10
31675;DHT22;18276;45.520;11.018;2022-09-13T12:00:35;30.40;47.10
31675;DHT22;18276;45.520;11.018;2022-09-13T12:05:50;29.80;48.00
31675;DHT22;18276;45.520;11.018;2022-09-13T12:08:40;29.50;48.50
31675;DHT22;18276;45.520;11.018;2022-09-13T12:11:16;29.20;48.70
31675;DHT22;18276;45.520;11.018;2022-09-13T12:14:01;29.40;48.60
31675;DHT22;18276;45.520;11.018;2022-09-13T12:16:35;29.70;48.50
31675;DHT22;18276;45.520;11.018;2022-09-13T12:21:40;30.20;46.90
31675;DHT22;18276;45.520;11.018;2022-09-13T12:24:17;30.50;46.70
31675;DHT22;18276;45.520;11.018;2022-09-13T12:26:58;30.60;46.60
31675;DHT22;18276;45.520;11.018;2022-09-13T12:32:08;31.00;46.20
31675;DHT22;18276;45.520;11.018;2022-09-13T12:35:08;31.00;45.70
31675;DHT22;18276;45.520;11.018;2022-09-13T12:43:39;30.40;46.90
31675;DHT22;18276;45.520;11.018;2022-09-13T12:59:37;30.80;46.10
31675;DHT22;18276;45.520;11.018;2022-09-13T13:02:30;30.80;46.50
31675;DHT22;18276;45.520;11.018;2022-09-13T13:05:05;30.70;46.50
31675;DHT22;18276;45.520;11.018;2022-09-13T13:07:34;30.30;47.60
31675;DHT22;18276;45.520;11.018;2022-09-13T13:10:04;30.10;48.40
31675;DHT22;18276;45.520;11.018;2022-09-13T13:12:33;30.10;48.30
31675;DHT22;18276;45.520;11.018;2022-09-13T13:15:06;30.10;48.10
31675;DHT22;18276;45.520;11.018;2022-09-13T13:17:51;30.00;48.30
31675;DHT22;18276;45.520;11.018;2022-09-13T13:25:59;29.90;49.20
31675;DHT22;18276;45.520;11.018;2022-09-13T13:33:58;30.00;48.60
31675;DHT22;18276;45.520;11.018;2022-09-13T13:38:56;29.60;49.20
31675;DHT22;18276;45.520;11.018;2022-09-13T13:44:00;29.70;49.50
31675;DHT22;18276;45.520;11.018;2022-09-13T13:46:31;29.80;49.40
31675;DHT22;18276;45.520;11.018;2022-09-13T14:00:26;29.60;49.30
31675;DHT22;18276;45.520;11.018;2022-09-13T14:03:10;29.60;49.20
31675;DHT22;18276;45.520;11.018;2022-09-13T14:21:25;30.10;48.60
31675;DHT22;18276;45.520;11.018;2022-09-13T14:24:21;30.10;48.00
31675;DHT22;18276;45.520;11.018;2022-09-13T14:26:57;30.10;48.00
31675;DHT22;18276;45.520;11.018;2022-09-13T14:29:25;30.00;48.00
31675;DHT22;18276;45.520;11.018;2022-09-13T14:32:00;30.20;47.90
31675;DHT22;18276;45.520;11.018;2022-09-13T14:34:34;30.40;47.40
31675;DHT22;18276;45.520;11.018;2022-09-13T14:37:05;30.50;47.10
31675;DHT22;18276;45.520;11.018;2022-09-13T14:39:32;30.60;47.10
31675;DHT22;18276;45.520;11.018;2022-09-13T14:42:10;30.70;47.10
31675;DHT22;18276;45.520;11.018;2022-09-13T14:44:43;31.00;46.90
31675;DHT22;18276;45.520;11.018;2022-09-13T14:49:50;31.70;45.40
31675;DHT22;18276;45.520;11.018;2022-09-13T14:52:39;31.70;45.00
31675;DHT22;18276;45.520;11.018;2022-09-13T14:55:14;31.60;44.90
31675;DHT22;18276;45.520;11.018;2022-09-13T14:57:49;31.50;45.20
31675;DHT22;18276;45.520;11.018;2022-09-13T15:00:20;31.40;45.30
31675;DHT22;18276;45.520;11.018;2022-09-13T15:02:53;31.70;45.00
31675;DHT22;18276;45.520;11.018;2022-09-13T15:05:23;31.90;44.70
31675;DHT22;18276;45.520;11.018;2022-09-13T15:07:51;32.10;44.70
31675;DHT22;18276;45.520;11.018;2022-09-13T15:10:31;32.40;43.90
31675;DHT22;18276;45.520;11.018;2022-09-13T15:15:39;32.40;43.20
31675;DHT22;18276;45.520;11.018;2022-09-13T15:20:46;32.30;43.20
31675;DHT22;18276;45.520;11.018;2022-09-13T15:23:17;32.40;43.10
31675;DHT22;18276;45.520;11.018;2022-09-13T15:25:54;32.50;43.10
31675;DHT22;18276;45.520;11.018;2022-09-13T15:28:30;32.80;43.10
31675;DHT22;18276;45.520;11.018;2022-09-13T15:30:59;33.00;43.10
31675;DHT22;18276;45.520;11.018;2022-09-13T15:33:31;33.20;43.10
31675;DHT22;18276;45.520;11.018;2022-09-13T15:41:37;32.90;41.90
31675;DHT22;18276;45.520;11.018;2022-09-13T15:44:06;32.60;42.20
31675;DHT22;18276;45.520;11.018;2022-09-13T15:46:45;32.50;42.40
31675;DHT22;18276;45.520;11.018;2022-09-13T15:49:16;32.20;43.90
31675;DHT22;18276;45.520;11.018;2022-09-13T15:51:44;32.00;44.50
31675;DHT22;18276;45.520;11.018;2022-09-13T15:54:13;31.70;45.70
31675;DHT22;18276;45.520;11.018;2022-09-13T15:56:45;31.40;47.40
31675;DHT22;18276;45.520;11.018;2022-09-13T15:59:14;31.10;48.30
31675;DHT22;18276;45.520;11.018;2022-09-13T16:01:42;30.70;48.40
31675;DHT22;18276;45.520;11.018;2022-09-13T16:04:10;30.40;48.50
31675;DHT22;18276;45.520;11.018;2022-09-13T16:06:38;30.20;48.90
31675;DHT22;18276;45.520;11.018;2022-09-13T16:09:31;29.80;49.50
31675;DHT22;18276;45.520;11.018;2022-09-13T16:11:58;29.60;50.00
31675;DHT22;18276;45.520;11.018;2022-09-13T16:14:25;29.30;50.80
31675;DHT22;18276;45.520;11.018;2022-09-13T16:16:52;29.10;51.60
31675;DHT22;18276;45.520;11.018;2022-09-13T16:19:22;29.00;52.50
31675;DHT22;18276;45.520;11.018;2022-09-13T16:21:50;28.80;53.20
31675;DHT22;18276;45.520;11.018;2022-09-13T16:24:17;28.60;54.00
31675;DHT22;18276;45.520;11.018;2022-09-13T16:26:44;28.40;54.60
31675;DHT22;18276;45.520;11.018;2022-09-13T16:29:11;28.30;55.10
31675;DHT22;18276;45.520;11.018;2022-09-13T16:31:39;28.10;55.60
31675;DHT22;18276;45.520;11.018;2022-09-13T16:34:06;27.90;55.90
31675;DHT22;18276;45.520;11.018;2022-09-13T16:36:34;27.80;56.10
31675;DHT22;18276;45.520;11.018;2022-09-13T16:39:02;27.70;56.60
31675;DHT22;18276;45.520;11.018;2022-09-13T16:41:29;27.60;56.90
31675;DHT22;18276;45.520;11.018;2022-09-13T16:43:56;27.60;57.10
31675;DHT22;18276;45.520;11.018;2022-09-13T16:46:24;27.40;57.00
31675;DHT22;18276;45.520;11.018;2022-09-13T16:48:52;27.30;57.30
31675;DHT22;18276;45.520;11.018;2022-09-13T16:51:23;27.20;57.80
31675;DHT22;18276;45.520;11.018;2022-09-13T16:53:51;27.10;58.40
31675;DHT22;18276;45.520;11.018;2022-09-13T16:56:21;27.00;58.70
31675;DHT22;18276;45.520;11.018;2022-09-13T16:58:49;26.90;58.90
31675;DHT22;18276;45.520;11.018;2022-09-13T17:01:20;26.80;59.10
31675;DHT22;18276;45.520;11.018;2022-09-13T17:03:47;26.70;59.10
31675;DHT22;18276;45.520;11.018;2022-09-13T17:06:21;26.60;59.10
31675;DHT22;18276;45.520;11.018;2022-09-13T17:08:57;26.60;59.30
31675;DHT22;18276;45.520;11.018;2022-09-13T17:11:29;26.50;59.50
31675;DHT22;18276;45.520;11.018;2022-09-13T17:13:56;26.40;59.60
31675;DHT22;18276;45.520;11.018;2022-09-13T17:16:27;26.30;59.70
31675;DHT22;18276;45.520;11.018;2022-09-13T17:18:57;26.20;60.10
31675;DHT22;18276;45.520;11.018;2022-09-13T17:21:25;26.20;60.50
31675;DHT22;18276;45.520;11.018;2022-09-13T17:23:53;26.10;60.90
31675;DHT22;18276;45.520;11.018;2022-09-13T17:26:20;26.00;61.30
31675;DHT22;18276;45.520;11.018;2022-09-13T17:28:48;26.00;61.70
31675;DHT22;18276;45.520;11.018;2022-09-13T17:31:15;25.90;61.90
31675;DHT22;18276;45.520;11.018;2022-09-13T17:33:42;25.80;62.30
31675;DHT22;18276;45.520;11.018;2022-09-13T17:36:11;25.70;62.70
31675;DHT22;18276;45.520;11.018;2022-09-13T17:38:39;25.70;63.10
31675;DHT22;18276;45.520;11.018;2022-09-13T17:41:15;25.60;63.20
31675;DHT22;18276;45.520;11.018;2022-09-13T17:43:44;25.60;63.50
31675;DHT22;18276;45.520;11.018;2022-09-13T17:46:16;25.50;63.40
31675;DHT22;18276;45.520;11.018;2022-09-13T17:48:44;25.50;63.80
31675;DHT22;18276;45.520;11.018;2022-09-13T17:51:16;25.40;63.90
31675;DHT22;18276;45.520;11.018;2022-09-13T17:53:47;25.40;64.30
31675;DHT22;18276;45.520;11.018;2022-09-13T17:56:20;25.30;64.50
31675;DHT22;18276;45.520;11.018;2022-09-13T17:58:48;25.20;64.80
31675;DHT22;18276;45.520;11.018;2022-09-13T18:01:15;25.20;64.90
31675;DHT22;18276;45.520;11.018;2022-09-13T18:03:42;25.20;65.20
31675;DHT22;18276;45.520;11.018;2022-09-13T18:06:10;25.10;65.20
31675;DHT22;18276;45.520;11.018;2022-09-13T18:08:40;25.00;65.30
31675;DHT22;18276;45.520;11.018;2022-09-13T18:11:12;24.90;65.70
31675;DHT22;18276;45.520;11.018;2022-09-13T18:13:42;24.80;66.20
31675;DHT22;18276;45.520;11.018;2022-09-13T18:16:21;24.70;66.50
31675;DHT22;18276;45.520;11.018;2022-09-13T18:19:26;24.70;66.80
31675;DHT22;18276;45.520;11.018;2022-09-13T18:22:19;24.50;67.10
31675;DHT22;18276;45.520;11.018;2022-09-13T18:24:46;24.50;67.40
31675;DHT22;18276;45.520;11.018;2022-09-13T18:27:13;24.40;67.70
31675;DHT22;18276;45.520;11.018;2022-09-13T18:29:40;24.30;67.90
31675;DHT22;18276;45.520;11.018;2022-09-13T18:32:08;24.30;68.10
31675;DHT22;18276;45.520;11.018;2022-09-13T18:34:35;24.20;68.30
31675;DHT22;18276;45.520;11.018;2022-09-13T18:37:02;24.20;68.50
31675;DHT22;18276;45.520;11.018;2022-09-13T18:39:29;24.20;68.70
31675;DHT22;18276;45.520;11.018;2022-09-13T18:41:56;24.10;68.80
31675;DHT22;18276;45.520;11.018;2022-09-13T18:44:23;24.00;69.10
31675;DHT22;18276;45.520;11.018;2022-09-13T18:46:50;24.00;69.40
31675;DHT22;18276;45.520;11.018;2022-09-13T18:49:21;23.90;69.60
31675;DHT22;18276;45.520;11.018;2022-09-13T18:51:48;23.80;69.70
31675;DHT22;18276;45.520;11.018;2022-09-13T18:54:17;23.80;70.00
31675;DHT22;18276;45.520;11.018;2022-09-13T18:56:45;23.80;70.20
31675;DHT22;18276;45.520;11.018;2022-09-13T18:59:13;23.70;70.40
31675;DHT22;18276;45.520;11.018;2022-09-13T19:01:42;23.60;70.40
31675;DHT22;18276;45.520;11.018;2022-09-13T19:04:15;23.60;70.60